createdAt,value
2019-03-06T00:00:52.176Z,100.00
2019-03-06T00:03:24.947Z,100.00
2019-03-06T00:05:56.144Z,100.00
2019-03-06T00:08:27.176Z,100.00
2019-03-06T00:10:58.473Z,100.00
2019-03-06T00:13:33.949Z,100.00
2019-03-06T00:16:06.452Z,100.00
2019-03-06T00:18:37.346Z,100.00
2019-03-06T00:21:08.241Z,100.00
2019-03-06T00:23:41.125Z,100.00
2019-03-06T00:26:15.145Z,100.00
2019-03-06T00:28:46.491Z,100.00
2019-03-06T00:31:18.069Z,100.00
2019-03-06T00:33:49.551Z,100.00
2019-03-06T00:36:28.417Z,100.00
2019-03-06T00:39:01.564Z,100.00
2019-03-06T00:41:47.272Z,100.00
2019-03-06T00:44:18.102Z,100.00
2019-03-06T00:46:48.918Z,100.00
2019-03-06T00:49:19.797Z,100.00
2019-03-06T00:51:50.712Z,100.00
2019-03-06T00:54:21.677Z,100.00
2019-03-06T00:56:54.362Z,100.00
2019-03-06T00:59:25.171Z,100.00
2019-03-06T01:01:56.089Z,100.00
2019-03-06T01:04:26.921Z,100.00
2019-03-06T01:06:57.942Z,100.00
2019-03-06T01:09:31.894Z,100.00
2019-03-06T01:12:03.002Z,100.00
2019-03-06T01:14:33.935Z,100.00
2019-03-06T01:17:05.126Z,100.00
2019-03-06T01:19:35.932Z,100.00
2019-03-06T01:22:14.234Z,100.00
2019-03-06T01:24:45.108Z,100.00
2019-03-06T01:27:16.029Z,100.00
2019-03-06T01:29:46.893Z,100.00
2019-03-06T01:32:17.838Z,100.00
2019-03-06T01:35:27.111Z,100.00
2019-03-06T01:38:24.742Z,100.00
2019-03-06T01:41:03.601Z,100.00
2019-03-06T01:43:44.142Z,100.00
2019-03-06T01:46:14.939Z,100.00
2019-03-06T01:48:46.052Z,100.00
2019-03-06T01:51:17.935Z,100.00
2019-03-06T01:53:49.832Z,100.00
2019-03-06T01:56:20.664Z,100.00
2019-03-06T01:58:51.490Z,100.00
2019-03-06T02:01:22.386Z,100.00
2019-03-06T02:03:53.509Z,100.00
2019-03-06T02:06:24.393Z,100.00
2019-03-06T02:08:55.257Z,100.00
2019-03-06T02:11:27.639Z,100.00
2019-03-06T02:13:58.957Z,100.00
2019-03-06T02:16:29.995Z,100.00
2019-03-06T02:19:00.790Z,100.00
2019-03-06T02:21:31.622Z,100.00
2019-03-06T02:24:02.501Z,100.00
2019-03-06T02:26:35.007Z,100.00
2019-03-06T02:29:05.847Z,100.00
2019-03-06T02:31:37.195Z,100.00
2019-03-06T02:34:08.060Z,100.00
2019-03-06T02:36:39.009Z,100.00
2019-03-06T02:39:09.933Z,100.00
2019-03-06T02:41:41.167Z,100.00
2019-03-06T02:44:12.088Z,100.00
2019-03-06T02:46:42.902Z,100.00
2019-03-06T02:49:14.079Z,100.00
2019-03-06T02:51:44.965Z,100.00
2019-03-06T02:54:15.788Z,100.00
2019-03-06T02:56:46.655Z,100.00
2019-03-06T02:59:45.374Z,100.00
2019-03-06T03:02:36.039Z,100.00
2019-03-06T03:05:23.987Z,100.00
2019-03-06T03:07:55.384Z,100.00
2019-03-06T03:10:26.282Z,100.00
2019-03-06T03:12:58.140Z,100.00
2019-03-06T03:15:28.994Z,100.00
2019-03-06T03:17:59.877Z,100.00
2019-03-06T03:20:30.787Z,100.00
2019-03-06T03:23:01.668Z,100.00
2019-03-06T03:25:33.055Z,100.00
2019-03-06T03:28:04.019Z,100.00
2019-03-06T03:30:35.086Z,100.00
2019-03-06T03:33:06.029Z,100.00
2019-03-06T03:35:36.989Z,100.00
2019-03-06T03:38:10.159Z,100.00
2019-03-06T03:40:41.117Z,100.00
2019-03-06T03:43:12.078Z,100.00
2019-03-06T03:45:45.530Z,100.00
2019-03-06T03:48:16.354Z,100.00
2019-03-06T03:50:47.503Z,100.00
2019-03-06T03:53:18.534Z,100.00
2019-03-06T03:55:49.412Z,100.00
2019-03-06T03:58:20.733Z,100.00
2019-03-06T04:00:51.642Z,100.00
2019-03-06T04:03:22.510Z,100.00
2019-03-06T04:05:53.316Z,100.00
2019-03-06T04:08:24.143Z,100.00
2019-03-06T04:10:55.068Z,100.00
2019-03-06T04:13:25.940Z,100.00
2019-03-06T04:15:56.806Z,100.00
2019-03-06T04:18:27.723Z,100.00
2019-03-06T04:20:58.921Z,100.00
2019-03-06T04:23:29.813Z,100.00
2019-03-06T04:26:00.713Z,100.00
2019-03-06T04:28:31.575Z,100.00
2019-03-06T04:31:02.422Z,100.00
2019-03-06T04:33:33.551Z,100.00
2019-03-06T04:36:04.442Z,100.00
2019-03-06T04:38:35.698Z,100.00
2019-03-06T04:41:06.557Z,100.00
2019-03-06T04:43:37.409Z,100.00
2019-03-06T04:46:08.269Z,100.00
2019-03-06T04:48:40.665Z,100.00
2019-03-06T04:51:13.079Z,100.00
2019-03-06T04:53:44.465Z,100.00
2019-03-06T04:56:18.895Z,100.00
2019-03-06T04:58:49.796Z,100.00
2019-03-06T05:01:20.926Z,100.00
2019-03-06T05:03:51.832Z,100.00
2019-03-06T05:06:22.693Z,100.00
2019-03-06T05:08:53.946Z,100.00
2019-03-06T05:11:24.823Z,100.00
2019-03-06T05:13:55.685Z,100.00
2019-03-06T05:16:45.581Z,100.00
2019-03-06T05:19:16.441Z,100.00
2019-03-06T05:21:47.353Z,100.00
2019-03-06T05:24:18.262Z,100.00
2019-03-06T05:28:02.512Z,100.00
2019-03-06T05:31:19.536Z,100.00
2019-03-06T05:33:56.248Z,100.00
2019-03-06T05:37:05.510Z,100.00
2019-03-06T05:39:41.390Z,100.00
2019-03-06T05:42:12.434Z,100.00
2019-03-06T05:44:43.521Z,100.00
2019-03-06T05:47:30.626Z,100.00
2019-03-06T05:50:01.487Z,100.00
2019-03-06T05:52:33.067Z,100.00
2019-03-06T05:55:03.941Z,100.00
2019-03-06T05:57:35.545Z,100.00
2019-03-06T06:00:08.839Z,100.00
2019-03-06T06:02:40.436Z,100.00
2019-03-06T06:05:28.400Z,100.00
2019-03-06T06:08:21.489Z,100.00
2019-03-06T06:11:01.922Z,100.00
2019-03-06T06:13:32.820Z,100.00
2019-03-06T06:16:03.734Z,100.00
2019-03-06T06:18:34.991Z,100.00
2019-03-06T06:21:23.227Z,100.00
2019-03-06T06:23:57.792Z,100.00
2019-03-06T06:26:29.053Z,100.00
2019-03-06T06:29:03.116Z,100.00
2019-03-06T06:31:33.954Z,100.00
2019-03-06T06:34:06.699Z,100.00
2019-03-06T06:36:37.568Z,100.00
2019-03-06T06:39:08.518Z,100.00
2019-03-06T06:41:39.822Z,100.00
2019-03-06T06:44:10.699Z,100.00
2019-03-06T06:46:41.939Z,100.00
2019-03-06T06:49:12.970Z,100.00
2019-03-06T06:52:22.363Z,100.00
2019-03-06T06:55:52.286Z,100.00
2019-03-06T06:58:43.579Z,100.00
2019-03-06T07:02:30.416Z,100.00
2019-03-06T07:05:33.170Z,100.00
2019-03-06T07:08:32.171Z,100.00
2019-03-06T07:11:21.883Z,100.00
2019-03-06T07:14:23.489Z,100.00
2019-03-06T07:17:16.098Z,100.00
2019-03-06T07:20:11.649Z,100.00
2019-03-06T07:23:11.469Z,100.00
2019-03-06T07:25:57.363Z,100.00
2019-03-06T07:28:46.531Z,100.00
2019-03-06T07:31:43.543Z,100.00
2019-03-06T07:34:54.532Z,100.00
2019-03-06T07:37:46.259Z,100.00
2019-03-06T07:40:24.121Z,100.00
2019-03-06T07:43:02.575Z,100.00
2019-03-06T07:46:05.882Z,100.00
2019-03-06T07:49:12.212Z,100.00
2019-03-06T07:54:56.329Z,100.00
2019-03-06T07:58:17.689Z,100.00
2019-03-06T08:00:49.120Z,100.00
2019-03-06T08:03:46.067Z,100.00
2019-03-06T08:06:16.983Z,100.00
2019-03-06T08:08:55.044Z,100.00
2019-03-06T08:11:33.634Z,100.00
2019-03-06T08:14:23.370Z,100.00
2019-03-06T08:17:15.660Z,100.00
2019-03-06T08:20:21.121Z,99.92
2019-03-06T08:23:10.948Z,100.00
2019-03-06T08:25:48.630Z,100.00
2019-03-06T08:28:25.278Z,98.98
2019-03-06T08:31:15.273Z,98.55
2019-03-06T08:33:46.117Z,99.81
2019-03-06T08:36:18.271Z,99.63
2019-03-06T08:38:55.431Z,99.34
2019-03-06T08:41:26.544Z,98.81
2019-03-06T08:44:02.752Z,99.19
2019-03-06T08:46:55.034Z,98.96
2019-03-06T08:50:00.364Z,98.75
2019-03-06T08:52:58.846Z,96.89
2019-03-06T08:55:46.527Z,95.90
2019-03-06T08:58:45.127Z,96.21
2019-03-06T09:02:00.903Z,97.12
2019-03-06T09:04:53.599Z,96.16
2019-03-06T09:07:47.473Z,97.02
2019-03-06T09:10:46.041Z,95.30
2019-03-06T09:13:44.215Z,96.70
2019-03-06T09:16:35.261Z,93.98
2019-03-06T09:19:31.148Z,95.30
2019-03-06T09:22:23.118Z,93.22
2019-03-06T09:25:05.390Z,94.30
2019-03-06T09:27:43.651Z,93.66
2019-03-06T09:30:31.262Z,93.41
2019-03-06T09:33:11.162Z,92.29
2019-03-06T09:36:10.948Z,91.02
2019-03-06T09:39:13.099Z,92.44
2019-03-06T09:42:04.335Z,88.80
2019-03-06T09:45:09.433Z,88.67
2019-03-06T09:47:59.481Z,89.42
2019-03-06T09:51:17.711Z,88.86
2019-03-06T09:54:20.862Z,87.36
2019-03-06T09:57:17.588Z,88.63
2019-03-06T10:00:10.979Z,85.97
2019-03-06T10:03:06.046Z,86.03
2019-03-06T10:06:03.397Z,83.10
2019-03-06T10:08:47.975Z,78.58
2019-03-06T10:11:42.967Z,81.56
2019-03-06T10:14:33.246Z,80.84
2019-03-06T10:17:19.643Z,81.79
2019-03-06T10:19:56.948Z,80.22
2019-03-06T10:22:29.607Z,78.11
2019-03-06T10:25:01.570Z,78.33
2019-03-06T10:27:36.784Z,79.65
2019-03-06T10:30:10.501Z,75.09
2019-03-06T10:32:41.538Z,77.80
2019-03-06T10:35:15.478Z,74.65
2019-03-06T10:37:46.453Z,73.55
2019-03-06T10:40:18.434Z,74.58
2019-03-06T10:42:49.492Z,74.72
2019-03-06T10:45:20.482Z,74.92
2019-03-06T10:47:53.461Z,75.09
2019-03-06T10:50:26.641Z,74.51
2019-03-06T10:52:57.228Z,73.65
2019-03-06T10:55:28.938Z,72.79
2019-03-06T10:58:00.431Z,73.08
2019-03-06T11:00:34.133Z,69.37
2019-03-06T11:03:07.444Z,67.98
2019-03-06T11:05:42.568Z,70.80
2019-03-06T11:08:16.865Z,69.83
2019-03-06T11:10:48.979Z,68.82
2019-03-06T11:13:21.082Z,70.18
2019-03-06T11:15:56.883Z,68.80
2019-03-06T11:18:29.146Z,67.96
2019-03-06T11:21:03.332Z,67.05
2019-03-06T11:23:43.979Z,66.49
2019-03-06T11:26:21.403Z,68.23
2019-03-06T11:29:14.952Z,68.20
2019-03-06T11:31:57.318Z,68.42
2019-03-06T11:34:28.477Z,67.53
2019-03-06T11:36:59.408Z,66.61
2019-03-06T11:39:30.401Z,65.59
2019-03-06T11:42:07.541Z,66.79
2019-03-06T11:44:41.460Z,66.41
2019-03-06T11:47:12.542Z,65.14
2019-03-06T11:49:47.114Z,65.93
2019-03-06T11:52:18.125Z,67.40
2019-03-06T11:54:50.855Z,67.23
2019-03-06T11:57:22.236Z,66.87
2019-03-06T11:59:55.052Z,65.67
2019-03-06T12:02:25.928Z,65.58
2019-03-06T12:04:57.474Z,64.74
2019-03-06T12:07:35.966Z,65.05
2019-03-06T12:10:10.333Z,62.66
2019-03-06T12:12:56.442Z,60.21
2019-03-06T12:15:31.038Z,62.08
2019-03-06T12:18:01.917Z,64.31
2019-03-06T12:20:35.873Z,64.58
2019-03-06T12:23:07.463Z,63.28
2019-03-06T12:25:40.338Z,62.66
2019-03-06T12:28:14.101Z,60.37
2019-03-06T12:31:02.172Z,64.06
2019-03-06T12:33:33.048Z,63.27
2019-03-06T12:36:11.171Z,62.22
2019-03-06T12:39:00.685Z,62.73
2019-03-06T12:41:19.085Z,64.13
2019-03-06T12:43:53.286Z,63.56
2019-03-06T12:46:35.115Z,63.61
2019-03-06T12:49:20.928Z,63.17
2019-03-06T12:51:54.736Z,64.97
2019-03-06T12:54:26.803Z,64.15
2019-03-06T12:56:59.264Z,62.44
2019-03-06T12:59:33.933Z,62.38
2019-03-06T13:02:04.704Z,63.13
2019-03-06T13:04:41.335Z,64.40
2019-03-06T13:07:18.020Z,62.75
2019-03-06T13:09:50.873Z,62.24
2019-03-06T13:12:24.993Z,64.33
2019-03-06T13:14:56.851Z,62.77
2019-03-06T13:17:29.151Z,61.93
2019-03-06T13:20:00.188Z,64.05
2019-03-06T13:22:33.000Z,64.43
2019-03-06T13:25:03.919Z,64.45
2019-03-06T13:27:34.773Z,63.93
2019-03-06T13:30:06.648Z,62.52
2019-03-06T13:33:08.390Z,63.10
2019-03-06T13:35:39.686Z,62.05
2019-03-06T13:38:11.600Z,62.13
2019-03-06T13:40:42.545Z,63.03
2019-03-06T13:43:13.443Z,63.45
2019-03-06T13:45:50.909Z,62.36
2019-03-06T13:48:22.493Z,62.23
2019-03-06T13:50:55.051Z,62.64
2019-03-06T13:53:27.744Z,61.82
2019-03-06T13:55:58.679Z,60.24
2019-03-06T13:58:29.575Z,61.07
2019-03-06T14:01:00.923Z,61.34
2019-03-06T14:03:34.320Z,60.36
2019-03-06T14:06:05.582Z,58.68
2019-03-06T14:08:37.357Z,57.93
2019-03-06T14:11:09.781Z,59.86
2019-03-06T14:13:40.673Z,60.49
2019-03-06T14:16:11.490Z,60.10
2019-03-06T14:18:42.555Z,59.46
2019-03-06T14:21:13.465Z,59.98
2019-03-06T14:23:44.454Z,60.05
2019-03-06T14:26:15.361Z,60.77
2019-03-06T14:29:22.902Z,59.52
2019-03-06T14:31:54.242Z,60.20
2019-03-06T14:34:26.958Z,59.84
2019-03-06T14:37:06.838Z,61.09
2019-03-06T14:39:43.655Z,59.61
2019-03-06T14:42:14.636Z,59.96
2019-03-06T14:44:46.259Z,60.27
2019-03-06T14:47:17.471Z,60.49
2019-03-06T14:49:52.034Z,60.94
2019-03-06T14:52:23.018Z,60.57
2019-03-06T14:54:56.032Z,60.65
2019-03-06T14:57:27.119Z,61.05
2019-03-06T15:00:11.646Z,61.07
2019-03-06T15:02:58.933Z,61.70
2019-03-06T15:05:30.011Z,63.71
2019-03-06T15:08:02.197Z,63.46
2019-03-06T15:10:42.754Z,63.94
2019-03-06T15:13:08.792Z,64.48
2019-03-06T15:15:44.367Z,65.33
2019-03-06T15:18:15.876Z,66.10
2019-03-06T15:20:46.797Z,66.04
2019-03-06T15:23:17.565Z,65.82
2019-03-06T15:25:48.459Z,65.45
2019-03-06T15:28:22.496Z,65.65
2019-03-06T15:31:00.004Z,65.79
2019-03-06T15:33:48.610Z,66.60
2019-03-06T15:36:24.611Z,66.47
2019-03-06T15:38:56.138Z,66.74
2019-03-06T15:41:27.468Z,66.37
2019-03-06T15:43:59.700Z,66.67
2019-03-06T15:46:30.881Z,66.22
2019-03-06T15:49:03.337Z,65.95
2019-03-06T15:51:38.684Z,65.79
2019-03-06T15:54:12.660Z,65.92
2019-03-06T15:56:52.144Z,66.20
2019-03-06T15:59:24.563Z,66.33
2019-03-06T16:02:05.350Z,66.29
2019-03-06T16:04:38.874Z,65.18
2019-03-06T16:07:22.817Z,65.94
2019-03-06T16:10:23.667Z,66.04
2019-03-06T16:13:10.873Z,65.68
2019-03-06T16:15:45.041Z,65.97
2019-03-06T16:18:20.394Z,66.95
2019-03-06T16:20:51.422Z,66.42
2019-03-06T16:23:24.292Z,66.66
2019-03-06T16:25:59.065Z,67.05
2019-03-06T16:28:32.543Z,66.99
2019-03-06T16:31:03.745Z,66.61
2019-03-06T16:33:50.745Z,66.88
2019-03-06T16:36:21.715Z,67.23
2019-03-06T16:38:55.056Z,67.20
2019-03-06T16:41:29.145Z,66.59
2019-03-06T16:44:04.773Z,66.98
2019-03-06T16:46:38.682Z,66.63
2019-03-06T16:49:15.675Z,67.11
2019-03-06T16:51:46.960Z,67.09
2019-03-06T16:54:19.964Z,66.65
2019-03-06T16:56:54.019Z,66.93
2019-03-06T16:59:27.519Z,66.95
2019-03-06T17:02:06.590Z,66.84
2019-03-06T17:04:43.829Z,67.03
2019-03-06T17:07:18.464Z,66.63
2019-03-06T17:09:49.915Z,67.11
2019-03-06T17:12:21.211Z,66.96
2019-03-06T17:14:54.094Z,67.37
2019-03-06T17:17:25.051Z,67.13
2019-03-06T17:19:57.620Z,66.90
2019-03-06T17:22:35.216Z,67.12
2019-03-06T17:25:06.575Z,67.36
2019-03-06T17:27:52.361Z,67.41
2019-03-06T17:30:40.945Z,67.26
2019-03-06T17:33:34.247Z,67.71
2019-03-06T17:36:05.392Z,67.46
2019-03-06T17:38:38.571Z,68.02
2019-03-06T17:41:10.167Z,67.84
2019-03-06T17:43:50.890Z,68.19
2019-03-06T17:46:24.139Z,68.66
2019-03-06T17:49:01.292Z,68.84
2019-03-06T17:51:32.793Z,69.31
2019-03-06T17:54:03.869Z,68.98
2019-03-06T17:56:36.456Z,69.35
2019-03-06T17:59:07.884Z,69.03
2019-03-06T18:01:42.783Z,68.84
2019-03-06T18:04:27.809Z,69.36
2019-03-06T18:07:00.173Z,69.23
2019-03-06T18:09:31.597Z,69.24
2019-03-06T18:12:06.509Z,69.67
2019-03-06T18:14:39.487Z,69.36
2019-03-06T18:17:12.283Z,69.60
2019-03-06T18:19:51.592Z,69.44
2019-03-06T18:22:25.258Z,69.43
2019-03-06T18:25:01.727Z,69.60
2019-03-06T18:27:36.660Z,69.71
2019-03-06T18:30:09.228Z,69.68
2019-03-06T18:32:43.719Z,69.95
2019-03-06T18:35:16.659Z,69.78
2019-03-06T18:37:48.545Z,69.60
2019-03-06T18:40:20.514Z,70.14
2019-03-06T18:42:54.901Z,70.67
2019-03-06T18:45:26.485Z,70.34
2019-03-06T18:47:58.433Z,70.70
2019-03-06T18:50:36.535Z,70.16
2019-03-06T18:53:08.155Z,70.36
2019-03-06T18:55:56.165Z,70.29
2019-03-06T18:58:24.311Z,70.68
2019-03-06T19:01:01.063Z,70.54
2019-03-06T19:03:43.953Z,70.49
2019-03-06T19:06:17.036Z,69.95
2019-03-06T19:08:48.617Z,69.88
2019-03-06T19:11:24.955Z,70.12
2019-03-06T19:14:05.599Z,70.12
2019-03-06T19:16:40.354Z,70.32
2019-03-06T19:19:14.792Z,69.93
2019-03-06T19:21:47.462Z,70.34
2019-03-06T19:24:30.420Z,70.68
2019-03-06T19:27:07.316Z,70.64
2019-03-06T19:29:38.940Z,71.19
2019-03-06T19:32:11.980Z,71.17
2019-03-06T19:34:49.726Z,71.41
2019-03-06T19:37:26.753Z,71.29
2019-03-06T19:40:09.439Z,71.90
2019-03-06T19:42:44.015Z,71.55
2019-03-06T19:45:20.243Z,71.73
2019-03-06T19:47:59.540Z,71.47
2019-03-06T19:50:37.012Z,72.20
2019-03-06T19:53:16.742Z,72.29
2019-03-06T19:55:54.749Z,72.06
2019-03-06T19:58:29.753Z,72.93
2019-03-06T20:01:06.748Z,73.63
2019-03-06T20:03:38.234Z,73.15
2019-03-06T20:06:26.579Z,72.24
2019-03-06T20:08:50.679Z,71.99
2019-03-06T20:11:22.748Z,71.75
2019-03-06T20:13:54.153Z,72.37
2019-03-06T20:16:25.748Z,72.23
2019-03-06T20:18:57.542Z,72.11
2019-03-06T20:21:43.699Z,72.07
2019-03-06T20:24:21.618Z,71.90
2019-03-06T20:26:55.608Z,71.99
2019-03-06T20:29:36.966Z,71.64
2019-03-06T20:32:09.880Z,71.80
2019-03-06T20:34:46.181Z,71.10
2019-03-06T20:37:17.590Z,71.29
2019-03-06T20:39:49.341Z,71.06
2019-03-06T20:42:20.725Z,71.01
2019-03-06T20:44:55.940Z,70.63
2019-03-06T20:47:29.484Z,70.54
2019-03-06T20:50:01.056Z,70.56
2019-03-06T20:52:34.408Z,70.58
2019-03-06T20:55:06.075Z,70.47
2019-03-06T20:57:37.953Z,70.27
2019-03-06T21:00:23.340Z,70.36
2019-03-06T21:02:58.353Z,70.44
2019-03-06T21:05:29.848Z,70.29
2019-03-06T21:08:01.330Z,70.19
2019-03-06T21:10:33.124Z,69.73
2019-03-06T21:13:13.988Z,70.17
2019-03-06T21:15:50.216Z,70.11
2019-03-06T21:18:24.942Z,70.55
2019-03-06T21:21:25.070Z,70.28
2019-03-06T21:24:02.663Z,69.99
2019-03-06T21:26:39.131Z,70.62
2019-03-06T21:29:13.682Z,70.21
2019-03-06T21:31:45.490Z,70.38
2019-03-06T21:34:27.785Z,70.23
2019-03-06T21:37:04.669Z,70.84
2019-03-06T21:39:36.690Z,70.85
2019-03-06T21:42:29.923Z,71.29
2019-03-06T21:45:01.389Z,71.20
2019-03-06T21:47:33.233Z,71.66
2019-03-06T21:50:04.664Z,71.43
2019-03-06T21:52:39.704Z,71.62
2019-03-06T21:55:12.868Z,71.96
2019-03-06T21:57:49.848Z,72.11
2019-03-06T22:00:21.778Z,70.45
2019-03-06T22:02:59.253Z,70.57
2019-03-06T22:05:39.213Z,70.28
2019-03-06T22:08:10.387Z,70.44
2019-03-06T22:10:44.471Z,69.95
2019-03-06T22:13:18.968Z,69.98
2019-03-06T22:15:49.801Z,70.28
2019-03-06T22:18:20.595Z,70.85
2019-03-06T22:20:51.384Z,70.81
2019-03-06T22:23:22.615Z,71.12
2019-03-06T22:25:53.460Z,70.58
2019-03-06T22:28:24.413Z,71.01
2019-03-06T22:30:55.719Z,70.80
2019-03-06T22:33:26.553Z,70.26
2019-03-06T22:35:57.400Z,70.12
2019-03-06T22:38:29.033Z,69.69
2019-03-06T22:41:00.402Z,69.78
2019-03-06T22:43:31.529Z,69.97
2019-03-06T22:46:03.048Z,69.64
2019-03-06T22:48:38.743Z,69.49
2019-03-06T22:51:11.023Z,68.91
2019-03-06T22:53:41.870Z,68.75
2019-03-06T22:56:12.774Z,69.03
2019-03-06T22:58:50.564Z,68.22
2019-03-06T23:01:34.176Z,67.69
2019-03-06T23:04:10.614Z,68.00
2019-03-06T23:06:42.445Z,67.72
2019-03-06T23:09:14.250Z,67.11
2019-03-06T23:11:45.500Z,66.60
2019-03-06T23:14:16.991Z,66.73
2019-03-06T23:16:47.861Z,66.60
2019-03-06T23:19:18.971Z,66.81
2019-03-06T23:21:49.843Z,67.62
2019-03-06T23:24:20.585Z,67.87
2019-03-06T23:26:52.388Z,67.76
2019-03-06T23:29:24.065Z,68.41
2019-03-06T23:31:55.941Z,68.20
2019-03-06T23:34:27.252Z,67.94
2019-03-06T23:36:59.677Z,67.89
2019-03-06T23:39:30.909Z,68.10
2019-03-06T23:42:03.571Z,67.51
2019-03-06T23:44:34.395Z,67.18
2019-03-06T23:47:05.298Z,67.12
2019-03-06T23:49:37.873Z,67.79
2019-03-06T23:52:26.678Z,67.26
2019-03-06T23:54:57.592Z,67.66
2019-03-06T23:57:33.337Z,65.50
